Time;durP1;ratioP1;P1;durP2;ratioP2;P2;SDS_P1;SDS_P2;PMS_P1;PMS_P2;Temp;Humidity;BMP_temperature;BMP_pressure;BME280_temperature;BME280_humidity;BME280_pressure;Samples;Min_cycle;Max_cycle;Signal;HPM_P1;HPM_P2
2023/07/07 00:00:41;;;;;;;;;8.00;6.50;;;;;;;;5050205;28;45364;-74
2023/07/07 00:03:06;;;;;;;;;8.25;8.25;;;;;;;;5044355;28;45453;-75
2023/07/07 00:05:31;;;;;;;;;9.75;7.00;;;;;;;;5043036;28;45287;-75
2023/07/07 00:07:57;;;;;;;;;7.25;7.25;;;;;;;;5049980;28;45478;-75
2023/07/07 00:10:22;;;;;;;;;7.00;7.00;;;;;;;;5038656;28;45483;-75
2023/07/07 00:12:47;;;;;;;;;7.75;7.75;;;;;;;;5031740;28;45341;-75
2023/07/07 00:15:13;;;;;;;;;6.25;5.50;;;;;;;;5047546;28;45472;-75
2023/07/07 00:17:41;;;;;;;;;6.75;6.75;;;;;;;;5051316;28;45440;-74
2023/07/07 00:20:07;;;;;;;;;7.00;6.25;;;;;;;;5038589;28;45392;-75
2023/07/07 00:22:34;;;;;;;;;10.50;10.25;;;;;;;;5044437;28;45377;-76
2023/07/07 00:24:59;;;;;;;;;6.75;6.75;;;;;;;;5047513;28;45403;-75
2023/07/07 00:27:24;;;;;;;;;6.75;6.00;;;;;;;;5046309;28;45403;-75
2023/07/07 00:29:49;;;;;;;;;6.25;5.25;;;;;;;;5039388;28;47325;-75
2023/07/07 00:32:15;;;;;;;;;8.50;6.50;;;;;;;;5051844;28;45451;-75
2023/07/07 00:34:40;;;;;;;;;8.00;6.25;;;;;;;;5039798;28;45325;-74
2023/07/07 00:37:05;;;;;;;;;8.25;7.00;;;;;;;;5045069;28;45466;-75
2023/07/07 00:39:30;;;;;;;;;10.25;7.00;;;;;;;;5047216;28;46106;-75
2023/07/07 00:41:56;;;;;;;;;5.50;5.00;;;;;;;;5039616;28;45438;-75
2023/07/07 00:44:24;;;;;;;;;6.25;5.25;;;;;;;;5050192;28;45833;-75
2023/07/07 00:46:49;;;;;;;;;6.75;5.75;;;;;;;;5041194;28;45506;-76
2023/07/07 00:49:17;;;;;;;;;6.50;5.00;;;;;;;;5044682;28;46554;-75
2023/07/07 00:51:45;;;;;;;;;7.50;7.25;;;;;;;;5048916;28;45513;-75
2023/07/07 00:54:14;;;;;;;;;6.25;6.00;;;;;;;;5037985;28;45377;-75
2023/07/07 00:56:41;;;;;;;;;9.25;8.25;;;;;;;;5050215;28;45339;-75
2023/07/07 00:59:12;;;;;;;;;10.25;6.50;;;;;;;;5034395;28;45454;-74
2023/07/07 01:01:38;;;;;;;;;6.25;5.75;;;;;;;;5040014;28;45385;-75
2023/07/07 01:04:06;;;;;;;;;8.50;8.50;;;;;;;;5037663;28;45646;-75
2023/07/07 01:06:35;;;;;;;;;6.75;6.75;;;;;;;;5036714;28;45411;-75
2023/07/07 01:09:05;;;;;;;;;10.50;7.00;;;;;;;;5045081;28;48443;-75
2023/07/07 01:11:31;;;;;;;;;8.50;7.00;;;;;;;;5045470;28;45382;-75
2023/07/07 01:13:57;;;;;;;;;10.50;9.00;;;;;;;;5050203;28;45431;-75
2023/07/07 01:16:34;;;;;;;;;6.00;6.00;;;;;;;;5038353;28;45390;-74
2023/07/07 01:19:15;;;;;;;;;5.25;4.00;;;;;;;;5046685;28;45537;-75
2023/07/07 01:21:52;;;;;;;;;10.75;10.75;;;;;;;;5030166;28;45454;-76
2023/07/07 01:24:24;;;;;;;;;10.75;10.75;;;;;;;;5037942;28;45414;-75
2023/07/07 01:27:00;;;;;;;;;11.50;10.00;;;;;;;;5047273;28;45528;-75
2023/07/07 01:29:31;;;;;;;;;9.25;9.25;;;;;;;;5046057;28;45475;-76
2023/07/07 01:32:28;;;;;;;;;10.00;10.00;;;;;;;;5054601;28;45309;-74
2023/07/07 01:34:56;;;;;;;;;12.00;12.00;;;;;;;;4995907;28;28461;-75
2023/07/07 01:37:21;;;;;;;;;12.50;12.50;;;;;;;;4981422;28;28532;-75
2023/07/07 01:39:47;;;;;;;;;5.25;5.25;;;;;;;;4986191;28;28568;-76
2023/07/07 01:42:12;;;;;;;;;10.75;8.50;;;;;;;;4991527;28;28464;-76
2023/07/07 01:44:56;;;;;;;;;11.25;10.50;;;;;;;;5005471;28;28617;-77
2023/07/07 01:47:32;;;;;;;;;9.00;6.75;;;;;;;;5007051;28;28552;-75
2023/07/07 01:50:01;;;;;;;;;11.00;10.00;;;;;;;;4975526;28;30080;-76
2023/07/07 01:52:29;;;;;;;;;9.00;7.75;;;;;;;;5003953;28;28535;-75
2023/07/07 01:54:58;;;;;;;;;9.00;7.75;;;;;;;;4994766;28;28507;-75
2023/07/07 01:57:26;;;;;;;;;10.50;9.75;;;;;;;;4996738;28;28385;-76
2023/07/07 01:59:51;;;;;;;;;8.50;7.00;;;;;;;;5002214;28;28824;-76
2023/07/07 02:02:17;;;;;;;;;7.50;7.50;;;;;;;;4990911;28;28416;-75
2023/07/07 02:04:42;;;;;;;;;13.00;10.25;;;;;;;;5002448;28;28404;-76
2023/07/07 02:07:07;;;;;;;;;7.50;7.50;;;;;;;;4996745;28;28431;-75
2023/07/07 02:09:33;;;;;;;;;11.25;10.25;;;;;;;;4999663;28;29350;-76
2023/07/07 02:11:58;;;;;;;;;7.00;7.00;;;;;;;;5056523;28;28836;-75
2023/07/07 02:14:23;;;;;;;;;6.75;5.00;;;;;;;;5065258;28;28552;-77
2023/07/07 02:16:49;;;;;;;;;8.00;7.00;;;;;;;;5056014;28;28716;-76
2023/07/07 02:19:15;;;;;;;;;8.00;6.50;;;;;;;;5060116;28;28595;-75
2023/07/07 02:21:40;;;;;;;;;7.00;7.00;;;;;;;;5062899;28;28553;-76
2023/07/07 02:24:05;;;;;;;;;7.00;7.00;;;;;;;;5053031;28;28597;-76
2023/07/07 02:26:30;;;;;;;;;6.50;4.75;;;;;;;;5066138;28;28544;-76
2023/07/07 02:28:56;;;;;;;;;6.25;5.75;;;;;;;;5056818;28;28501;-76
2023/07/07 02:31:24;;;;;;;;;6.25;6.25;;;;;;;;5066031;28;28563;-76
2023/07/07 02:33:49;;;;;;;;;5.25;4.00;;;;;;;;5055064;28;28500;-74
2023/07/07 02:36:14;;;;;;;;;3.25;3.25;;;;;;;;5065925;28;28371;-76
2023/07/07 02:38:40;;;;;;;;;4.25;4.25;;;;;;;;5054643;28;28540;-76
2023/07/07 02:41:05;;;;;;;;;5.00;5.00;;;;;;;;5063604;28;28418;-76
2023/07/07 02:43:30;;;;;;;;;5.75;5.75;;;;;;;;5064872;28;28496;-76
2023/07/07 02:45:56;;;;;;;;;6.00;4.50;;;;;;;;5057295;28;28352;-76
2023/07/07 02:48:22;;;;;;;;;5.00;5.00;;;;;;;;5067715;28;30086;-76
2023/07/07 02:51:01;;;;;;;;;6.00;6.00;;;;;;;;5058865;28;28482;-76
2023/07/07 02:53:31;;;;;;;;;8.00;7.00;;;;;;;;5061243;28;28541;-75
2023/07/07 02:55:56;;;;;;;;;6.75;6.75;;;;;;;;5067972;28;28423;-76
2023/07/07 02:58:22;;;;;;;;;5.50;5.00;;;;;;;;5054607;28;29752;-75
2023/07/07 03:00:48;;;;;;;;;7.50;5.25;;;;;;;;5066473;28;28417;-75
2023/07/07 03:03:13;;;;;;;;;6.00;5.00;;;;;;;;5062250;28;28477;-76
2023/07/07 03:05:39;;;;;;;;;2.50;1.50;;;;;;;;5058112;28;28503;-75
2023/07/07 03:08:05;;;;;;;;;4.50;4.50;;;;;;;;5069134;28;28501;-77
2023/07/07 03:10:31;;;;;;;;;6.50;5.00;;;;;;;;5055850;28;28587;-76
2023/07/07 03:12:56;;;;;;;;;5.50;5.50;;;;;;;;5066094;28;28544;-76
2023/07/07 03:15:21;;;;;;;;;6.25;4.00;;;;;;;;5061578;28;28499;-75
2023/07/07 03:17:47;;;;;;;;;4.25;4.25;;;;;;;;5066769;28;28420;-76
2023/07/07 03:20:12;;;;;;;;;4.25;4.00;;;;;;;;5055691;28;28426;-75
2023/07/07 03:22:37;;;;;;;;;0.25;0.25;;;;;;;;5067972;28;28327;-76
2023/07/07 03:25:03;;;;;;;;;5.00;4.25;;;;;;;;5060081;28;28474;-76
2023/07/07 03:27:28;;;;;;;;;4.25;4.25;;;;;;;;5060582;28;28396;-76
2023/07/07 03:29:53;;;;;;;;;3.75;3.00;;;;;;;;5065191;28;28418;-75
2023/07/07 03:32:18;;;;;;;;;5.00;4.00;;;;;;;;5054421;28;45364;-76
2023/07/07 03:34:44;;;;;;;;;5.50;5.50;;;;;;;;5041693;28;45371;-76
2023/07/07 03:37:09;;;;;;;;;4.50;4.50;;;;;;;;5047529;28;47317;-75
2023/07/07 03:39:34;;;;;;;;;4.50;4.50;;;;;;;;5036095;28;45216;-76
2023/07/07 03:42:00;;;;;;;;;4.50;4.50;;;;;;;;5036993;28;45157;-75
2023/07/07 03:44:26;;;;;;;;;5.00;4.00;;;;;;;;5036457;28;45500;-76
2023/07/07 03:46:51;;;;;;;;;4.50;4.50;;;;;;;;5036528;28;46130;-76
2023/07/07 03:49:16;;;;;;;;;4.75;4.00;;;;;;;;5036484;28;45367;-76
2023/07/07 03:51:41;;;;;;;;;4.25;4.25;;;;;;;;5036161;28;45328;-76
2023/07/07 03:54:07;;;;;;;;;4.75;3.75;;;;;;;;5036672;28;45308;-76
2023/07/07 03:56:32;;;;;;;;;3.25;3.25;;;;;;;;5036567;28;46100;-75
2023/07/07 03:58:57;;;;;;;;;4.25;4.25;;;;;;;;5036234;28;45435;-76
2023/07/07 04:01:22;;;;;;;;;8.00;5.50;;;;;;;;5036481;28;45277;-76
2023/07/07 04:03:48;;;;;;;;;5.50;3.00;;;;;;;;5036201;28;45488;-76
2023/07/07 04:06:14;;;;;;;;;4.00;4.00;;;;;;;;5036177;28;46358;-75
2023/07/07 04:08:39;;;;;;;;;3.00;3.00;;;;;;;;5036379;28;45573;-76
2023/07/07 04:11:06;;;;;;;;;6.75;5.25;;;;;;;;5036311;28;45500;-76
2023/07/07 04:13:33;;;;;;;;;5.00;5.00;;;;;;;;5035991;28;45315;-76
2023/07/07 04:16:03;;;;;;;;;3.75;3.25;;;;;;;;5035942;28;45497;-72
2023/07/07 04:18:29;;;;;;;;;4.25;4.25;;;;;;;;5035941;28;45287;-75
2023/07/07 04:20:57;;;;;;;;;4.00;4.00;;;;;;;;5036263;28;45410;-76
2023/07/07 04:23:22;;;;;;;;;5.00;5.00;;;;;;;;5036310;28;45415;-75
2023/07/07 04:25:49;;;;;;;;;4.00;4.00;;;;;;;;5035979;28;45410;-73
2023/07/07 04:28:15;;;;;;;;;7.75;5.00;;;;;;;;5035906;28;45400;-73
2023/07/07 04:30:40;;;;;;;;;4.00;4.00;;;;;;;;5035607;28;45288;-73
2023/07/07 04:33:05;;;;;;;;;3.50;3.50;;;;;;;;5036512;28;45452;-73
2023/07/07 04:35:34;;;;;;;;;4.00;4.00;;;;;;;;5035882;28;46344;-73
2023/07/07 04:37:59;;;;;;;;;4.50;4.25;;;;;;;;5035769;28;45756;-73
2023/07/07 04:40:24;;;;;;;;;3.00;3.00;;;;;;;;5035786;28;45371;-73
2023/07/07 04:42:49;;;;;;;;;4.50;4.50;;;;;;;;5035409;28;45377;-73
2023/07/07 04:45:14;;;;;;;;;4.00;4.00;;;;;;;;5035541;28;45378;-73
2023/07/07 04:47:40;;;;;;;;;4.00;4.00;;;;;;;;5035999;28;45423;-73
2023/07/07 04:50:05;;;;;;;;;3.75;3.75;;;;;;;;5036054;28;45489;-73
2023/07/07 04:52:30;;;;;;;;;2.50;2.50;;;;;;;;5035999;28;45432;-73
2023/07/07 04:54:55;;;;;;;;;3.00;3.00;;;;;;;;5035777;28;46251;-72
2023/07/07 04:57:20;;;;;;;;;5.00;5.00;;;;;;;;5035274;28;45328;-73
2023/07/07 04:59:46;;;;;;;;;4.75;4.00;;;;;;;;5036221;28;45352;-73
2023/07/07 05:02:11;;;;;;;;;4.00;4.00;;;;;;;;5034532;28;45378;-73
2023/07/07 05:04:36;;;;;;;;;4.50;4.50;;;;;;;;5035093;28;45438;-73
2023/07/07 05:07:02;;;;;;;;;5.50;5.25;;;;;;;;5035395;28;45493;-73
2023/07/07 05:09:27;;;;;;;;;5.00;5.00;;;;;;;;5035255;28;45464;-73
2023/07/07 05:11:52;;;;;;;;;4.00;4.00;;;;;;;;5035244;28;45477;-72
2023/07/07 05:14:17;;;;;;;;;7.25;5.50;;;;;;;;5035174;28;46384;-72
2023/07/07 05:16:43;;;;;;;;;7.50;6.00;;;;;;;;5035477;28;45424;-73
2023/07/07 05:19:08;;;;;;;;;5.50;5.50;;;;;;;;5035848;28;45347;-73
2023/07/07 05:21:33;;;;;;;;;5.25;4.25;;;;;;;;5035422;28;45453;-73
2023/07/07 05:23:59;;;;;;;;;6.25;4.75;;;;;;;;5035261;28;47060;-73
2023/07/07 05:26:28;;;;;;;;;5.75;5.75;;;;;;;;5035161;28;45475;-73
2023/07/07 05:28:54;;;;;;;;;3.00;3.00;;;;;;;;5035612;28;45330;-73
2023/07/07 05:31:20;;;;;;;;;6.00;4.75;;;;;;;;5035411;28;45368;-73
2023/07/07 05:33:45;;;;;;;;;5.25;5.00;;;;;;;;5035263;28;47115;-72
2023/07/07 05:36:10;;;;;;;;;6.00;5.00;;;;;;;;5035564;28;45494;-72
2023/07/07 05:38:37;;;;;;;;;7.25;5.50;;;;;;;;5035429;28;45905;-72
2023/07/07 05:41:03;;;;;;;;;6.25;5.25;;;;;;;;5035168;28;45385;-73
2023/07/07 05:43:28;;;;;;;;;3.25;3.25;;;;;;;;5033598;28;45931;-72
2023/07/07 05:45:57;;;;;;;;;4.25;4.25;;;;;;;;5035131;28;45295;-73
2023/07/07 05:48:22;;;;;;;;;5.00;5.00;;;;;;;;5035084;28;45292;-73
2023/07/07 05:50:48;;;;;;;;;3.75;3.50;;;;;;;;5034782;28;45357;-73
2023/07/07 05:53:13;;;;;;;;;5.25;5.00;;;;;;;;5034751;28;45456;-73
2023/07/07 05:55:38;;;;;;;;;7.25;6.75;;;;;;;;5034799;28;45211;-73
2023/07/07 05:58:04;;;;;;;;;6.50;6.25;;;;;;;;5033452;28;45725;-73
2023/07/07 06:00:31;;;;;;;;;6.00;5.00;;;;;;;;5034795;28;45407;-73
2023/07/07 06:02:57;;;;;;;;;7.25;7.25;;;;;;;;5034726;28;45578;-72
2023/07/07 06:05:23;;;;;;;;;7.50;7.50;;;;;;;;5034696;28;45513;-73
2023/07/07 06:07:49;;;;;;;;;6.00;6.00;;;;;;;;5035136;28;45481;-73
2023/07/07 06:10:14;;;;;;;;;6.00;6.00;;;;;;;;5034683;28;45609;-73
2023/07/07 06:12:39;;;;;;;;;6.00;6.00;;;;;;;;5034334;28;46371;-72
2023/07/07 06:15:05;;;;;;;;;7.25;7.25;;;;;;;;5037148;28;45416;-73
2023/07/07 06:17:30;;;;;;;;;5.00;5.00;;;;;;;;5038338;28;45351;-72
2023/07/07 06:19:56;;;;;;;;;5.50;5.25;;;;;;;;5038126;28;45538;-73
2023/07/07 06:22:21;;;;;;;;;8.00;8.00;;;;;;;;5037922;28;47221;-73
2023/07/07 06:24:46;;;;;;;;;7.50;5.00;;;;;;;;5037835;28;45363;-73
2023/07/07 06:27:12;;;;;;;;;6.50;5.50;;;;;;;;5037812;28;45437;-72
2023/07/07 06:29:37;;;;;;;;;6.75;4.75;;;;;;;;5036803;28;45476;-73
2023/07/07 06:32:02;;;;;;;;;6.75;5.75;;;;;;;;5037682;28;46333;-73
2023/07/07 06:34:27;;;;;;;;;8.75;6.75;;;;;;;;5036667;28;45945;-72
2023/07/07 06:36:53;;;;;;;;;5.50;5.25;;;;;;;;5037873;28;45368;-72
2023/07/07 06:39:18;;;;;;;;;5.00;4.25;;;;;;;;5037921;28;45539;-72
2023/07/07 06:41:43;;;;;;;;;7.50;6.00;;;;;;;;5037568;28;47115;-72
2023/07/07 06:44:08;;;;;;;;;5.50;4.50;;;;;;;;5037663;28;45385;-72
2023/07/07 06:46:33;;;;;;;;;5.00;5.00;;;;;;;;5037736;28;45439;-72
2023/07/07 06:49:01;;;;;;;;;6.00;6.00;;;;;;;;5036574;28;45536;-72
2023/07/07 06:51:26;;;;;;;;;3.00;3.00;;;;;;;;5037253;28;45382;-72
2023/07/07 06:53:51;;;;;;;;;4.50;4.50;;;;;;;;5037400;28;45421;-72
2023/07/07 06:56:16;;;;;;;;;7.25;6.75;;;;;;;;5037671;28;45447;-72
2023/07/07 06:58:42;;;;;;;;;8.25;5.75;;;;;;;;5037405;28;45578;-72
2023/07/07 07:01:10;;;;;;;;;6.00;5.25;;;;;;;;5037316;28;45496;-72
2023/07/07 07:03:36;;;;;;;;;9.00;6.50;;;;;;;;5037235;28;45323;-73
2023/07/07 07:06:01;;;;;;;;;9.75;6.00;;;;;;;;5037273;28;45249;-72
2023/07/07 07:08:26;;;;;;;;;5.75;5.25;;;;;;;;5037579;28;45181;-72
2023/07/07 07:10:51;;;;;;;;;8.00;7.00;;;;;;;;5035995;28;45360;-72
2023/07/07 07:13:16;;;;;;;;;8.00;6.50;;;;;;;;5037134;28;45250;-72
2023/07/07 07:15:42;;;;;;;;;6.25;6.25;;;;;;;;5036506;28;45262;-71
2023/07/07 07:18:08;;;;;;;;;8.00;6.00;;;;;;;;5037157;28;45533;-72
2023/07/07 07:20:33;;;;;;;;;6.50;6.50;;;;;;;;5035570;28;47431;-72
2023/07/07 07:22:58;;;;;;;;;7.00;5.00;;;;;;;;5037081;28;45312;-72
2023/07/07 07:25:24;;;;;;;;;5.25;4.25;;;;;;;;5036162;28;45395;-72
2023/07/07 07:27:50;;;;;;;;;6.25;5.25;;;;;;;;5036900;28;45415;-72
2023/07/07 07:30:15;;;;;;;;;5.75;5.00;;;;;;;;5036934;28;46141;-72
2023/07/07 07:32:40;;;;;;;;;6.50;6.50;;;;;;;;5037001;28;45390;-72
2023/07/07 07:35:06;;;;;;;;;8.50;5.75;;;;;;;;5037100;28;45440;-72
2023/07/07 07:37:31;;;;;;;;;7.00;6.00;;;;;;;;5036785;28;45453;-71
2023/07/07 07:39:56;;;;;;;;;5.75;5.75;;;;;;;;5036859;28;45561;-72
2023/07/07 07:42:21;;;;;;;;;6.50;6.50;;;;;;;;5036748;28;45438;-72
2023/07/07 07:44:47;;;;;;;;;5.00;5.00;;;;;;;;5036862;28;45463;-72
2023/07/07 07:47:12;;;;;;;;;5.75;5.75;;;;;;;;5037044;28;45457;-72
2023/07/07 07:49:37;;;;;;;;;5.25;5.25;;;;;;;;5036416;28;46273;-72
2023/07/07 07:52:02;;;;;;;;;5.25;5.25;;;;;;;;5036709;28;45776;-72
2023/07/07 07:54:28;;;;;;;;;5.00;5.00;;;;;;;;5036841;28;45529;-72
2023/07/07 07:56:53;;;;;;;;;5.50;5.50;;;;;;;;5036702;28;45752;-72
2023/07/07 07:59:18;;;;;;;;;6.75;5.50;;;;;;;;5036443;28;46021;-72
2023/07/07 08:01:44;;;;;;;;;4.00;4.00;;;;;;;;5036417;28;45446;-72
2023/07/07 08:04:10;;;;;;;;;6.50;6.50;;;;;;;;5036631;28;45442;-72
2023/07/07 08:06:35;;;;;;;;;5.00;3.25;;;;;;;;5036489;28;45503;-72
2023/07/07 08:09:00;;;;;;;;;5.00;5.00;;;;;;;;5034906;28;47373;-72
2023/07/07 08:11:45;;;;;;;;;8.50;8.00;;;;;;;;5036361;28;45306;-72
2023/07/07 08:14:15;;;;;;;;;6.00;6.00;;;;;;;;5036394;28;45907;-72
2023/07/07 08:16:41;;;;;;;;;4.50;4.50;;;;;;;;5036145;28;45364;-72
2023/07/07 08:19:06;;;;;;;;;7.25;3.25;;;;;;;;5035615;28;45417;-73
2023/07/07 08:21:32;;;;;;;;;5.00;5.00;;;;;;;;5035995;28;45400;-73
2023/07/07 08:23:57;;;;;;;;;4.75;4.00;;;;;;;;5036354;28;45258;-72
2023/07/07 08:26:22;;;;;;;;;6.00;4.75;;;;;;;;5036292;28;45412;-72
2023/07/07 08:28:47;;;;;;;;;4.00;3.25;;;;;;;;5036190;28;45343;-72
2023/07/07 08:31:13;;;;;;;;;5.00;5.00;;;;;;;;5036133;28;45321;-72
2023/07/07 08:33:38;;;;;;;;;5.00;5.00;;;;;;;;5036164;28;45329;-72
2023/07/07 08:36:03;;;;;;;;;6.50;5.00;;;;;;;;5036263;28;45491;-73
2023/07/07 08:38:28;;;;;;;;;5.00;4.00;;;;;;;;5035411;28;45358;-72
2023/07/07 08:40:55;;;;;;;;;5.25;5.25;;;;;;;;5035970;28;45336;-72
2023/07/07 08:43:21;;;;;;;;;6.00;4.75;;;;;;;;5036185;28;45302;-73
2023/07/07 08:45:56;;;;;;;;;4.75;4.25;;;;;;;;5035946;28;45375;-72
2023/07/07 08:48:35;;;;;;;;;6.00;4.00;;;;;;;;5035351;28;45600;-72
2023/07/07 08:51:04;;;;;;;;;5.75;5.75;;;;;;;;5035609;28;45462;-72
2023/07/07 08:53:39;;;;;;;;;5.75;5.25;;;;;;;;5035722;28;45411;-72
2023/07/07 08:56:07;;;;;;;;;6.00;5.75;;;;;;;;5035725;28;45335;-72
2023/07/07 08:58:36;;;;;;;;;7.25;4.75;;;;;;;;5033842;28;47817;-72
2023/07/07 09:01:04;;;;;;;;;5.75;5.75;;;;;;;;5035566;28;45376;-72
2023/07/07 09:03:29;;;;;;;;;4.00;3.00;;;;;;;;5035175;28;45434;-72
2023/07/07 09:05:54;;;;;;;;;6.25;5.25;;;;;;;;5036455;28;45371;-72
2023/07/07 09:08:28;;;;;;;;;5.75;4.75;;;;;;;;5035930;28;45529;-72
2023/07/07 09:11:01;;;;;;;;;7.50;4.75;;;;;;;;5035446;28;45515;-73
2023/07/07 09:13:27;;;;;;;;;7.75;5.25;;;;;;;;5034249;28;45407;-72
2023/07/07 09:16:01;;;;;;;;;5.75;5.50;;;;;;;;5035780;28;45614;-72
2023/07/07 09:18:30;;;;;;;;;5.25;5.25;;;;;;;;5035316;28;46254;-72
2023/07/07 09:20:59;;;;;;;;;5.75;5.75;;;;;;;;5035342;28;45384;-72
2023/07/07 09:23:26;;;;;;;;;2.75;2.75;;;;;;;;5035350;28;45567;-72
2023/07/07 09:26:08;;;;;;;;;6.00;5.00;;;;;;;;5035267;28;45339;-72
2023/07/07 09:28:39;;;;;;;;;7.25;7.25;;;;;;;;5034539;28;45429;-72
2023/07/07 09:31:23;;;;;;;;;8.00;5.25;;;;;;;;5035498;28;45452;-72
2023/07/07 09:33:49;;;;;;;;;4.50;4.25;;;;;;;;5035717;28;45414;-73
2023/07/07 09:36:34;;;;;;;;;5.25;5.25;;;;;;;;5035405;28;45387;-73
2023/07/07 09:39:14;;;;;;;;;5.75;5.75;;;;;;;;5035177;28;47033;-72
2023/07/07 09:41:52;;;;;;;;;5.75;4.50;;;;;;;;5035316;28;45693;-72
2023/07/07 09:44:20;;;;;;;;;5.75;5.75;;;;;;;;5035083;28;45324;-73
2023/07/07 09:46:54;;;;;;;;;7.00;6.00;;;;;;;;5034767;28;45444;-72
2023/07/07 09:49:27;;;;;;;;;5.25;5.25;;;;;;;;5034111;28;47201;-72
2023/07/07 09:51:58;;;;;;;;;6.75;5.75;;;;;;;;5033750;28;45367;-73
2023/07/07 09:54:23;;;;;;;;;5.00;5.00;;;;;;;;5035145;28;45308;-72
2023/07/07 09:56:52;;;;;;;;;9.50;8.25;;;;;;;;5034801;28;45284;-73
2023/07/07 09:59:22;;;;;;;;;6.00;3.75;;;;;;;;5034484;28;46963;-72
2023/07/07 10:01:50;;;;;;;;;5.50;5.50;;;;;;;;5034535;28;45436;-72
2023/07/07 10:04:16;;;;;;;;;8.25;5.75;;;;;;;;5034931;28;45402;-72
2023/07/07 10:06:47;;;;;;;;;5.25;5.25;;;;;;;;5034475;28;45378;-73
2023/07/07 10:09:13;;;;;;;;;5.50;5.00;;;;;;;;5034653;28;46079;-72
2023/07/07 10:11:39;;;;;;;;;5.00;5.00;;;;;;;;5034525;28;45245;-73
2023/07/07 10:14:05;;;;;;;;;5.25;5.25;;;;;;;;5034064;28;45379;-73
2023/07/07 10:16:32;;;;;;;;;6.50;5.50;;;;;;;;5034439;28;45448;-73
2023/07/07 10:18:59;;;;;;;;;6.50;5.50;;;;;;;;5034257;28;45569;-72
2023/07/07 10:21:24;;;;;;;;;8.50;6.25;;;;;;;;5032879;28;45532;-72
2023/07/07 10:23:51;;;;;;;;;6.00;6.00;;;;;;;;5034378;28;45417;-73
2023/07/07 10:26:16;;;;;;;;;6.75;6.75;;;;;;;;5034501;28;45335;-72
2023/07/07 10:28:41;;;;;;;;;5.75;5.75;;;;;;;;5034080;28;46245;-72
2023/07/07 10:31:08;;;;;;;;;6.00;5.00;;;;;;;;5033997;28;45269;-72
2023/07/07 10:33:33;;;;;;;;;6.75;6.00;;;;;;;;5034441;28;45375;-72
2023/07/07 10:36:15;;;;;;;;;6.00;6.00;;;;;;;;5034402;28;45474;-73
2023/07/07 10:38:41;;;;;;;;;5.25;4.25;;;;;;;;5033915;28;46490;-72
2023/07/07 10:41:07;;;;;;;;;5.00;4.00;;;;;;;;5034385;28;45316;-73
2023/07/07 10:43:33;;;;;;;;;5.50;5.25;;;;;;;;5034281;28;45743;-72
2023/07/07 10:45:58;;;;;;;;;7.00;5.25;;;;;;;;5034601;28;45425;-73
2023/07/07 10:48:23;;;;;;;;;6.50;5.25;;;;;;;;5034278;28;46222;-73
2023/07/07 10:51:05;;;;;;;;;5.00;5.00;;;;;;;;5033914;28;45378;-72
2023/07/07 10:53:49;;;;;;;;;6.75;5.75;;;;;;;;5034260;28;45464;-72
2023/07/07 10:56:26;;;;;;;;;4.25;4.25;;;;;;;;5034224;28;45450;-72
2023/07/07 10:59:01;;;;;;;;;4.75;4.75;;;;;;;;5033395;28;45376;-72
2023/07/07 11:01:45;;;;;;;;;5.00;4.00;;;;;;;;5035326;28;45384;-73
2023/07/07 11:04:30;;;;;;;;;6.50;6.25;;;;;;;;5037509;28;45379;-72
2023/07/07 11:07:14;;;;;;;;;3.75;3.75;;;;;;;;5019581;28;45471;-72
2023/07/07 11:09:52;;;;;;;;;5.50;5.50;;;;;;;;5036012;28;45729;-72
2023/07/07 11:12:27;;;;;;;;;6.00;5.00;;;;;;;;5031566;28;45411;-72
2023/07/07 11:15:11;;;;;;;;;6.00;4.75;;;;;;;;5017019;28;45478;-72
2023/07/07 11:17:50;;;;;;;;;4.00;4.00;;;;;;;;5017193;28;45290;-72
2023/07/07 11:20:21;;;;;;;;;4.25;3.25;;;;;;;;5017306;28;45394;-71
2023/07/07 11:22:52;;;;;;;;;5.00;5.00;;;;;;;;5017132;28;45653;-72
2023/07/07 11:25:17;;;;;;;;;3.25;3.25;;;;;;;;5016938;28;45400;-72
2023/07/07 11:27:54;;;;;;;;;4.25;3.00;;;;;;;;5016813;28;45427;-72
2023/07/07 11:30:33;;;;;;;;;4.00;3.00;;;;;;;;5022650;28;45424;-72
2023/07/07 11:33:07;;;;;;;;;2.75;2.75;;;;;;;;5036937;28;45261;-72
2023/07/07 11:35:38;;;;;;;;;3.00;3.00;;;;;;;;5036665;28;45438;-72
2023/07/07 11:38:29;;;;;;;;;5.00;4.00;;;;;;;;5036974;28;45359;-72
2023/07/07 11:40:59;;;;;;;;;3.50;3.50;;;;;;;;4975226;28;47430;-72
2023/07/07 11:43:24;;;;;;;;;3.00;3.00;;;;;;;;4975152;28;45660;-72
2023/07/07 11:46:08;;;;;;;;;7.25;5.25;;;;;;;;4975226;28;45438;-72
2023/07/07 11:48:52;;;;;;;;;3.00;3.00;;;;;;;;4974636;28;45449;-72
2023/07/07 11:51:17;;;;;;;;;7.00;5.25;;;;;;;;4974637;28;45618;-73
2023/07/07 11:53:48;;;;;;;;;3.00;3.00;;;;;;;;4974262;28;45512;-72
2023/07/07 11:56:22;;;;;;;;;3.50;3.50;;;;;;;;4974577;28;45460;-72
2023/07/07 11:58:57;;;;;;;;;4.00;4.00;;;;;;;;4974675;28;45384;-71
2023/07/07 12:01:27;;;;;;;;;2.75;2.75;;;;;;;;4958268;28;45584;-72
2023/07/07 12:03:53;;;;;;;;;2.75;2.75;;;;;;;;4974838;28;45391;-72
2023/07/07 12:06:18;;;;;;;;;4.00;4.00;;;;;;;;4974728;28;45425;-72
2023/07/07 12:08:52;;;;;;;;;2.00;2.00;;;;;;;;4974901;28;45420;-72
2023/07/07 12:11:18;;;;;;;;;5.75;4.00;;;;;;;;4974114;28;45444;-72
2023/07/07 12:13:54;;;;;;;;;2.25;2.00;;;;;;;;4974483;28;45506;-72
2023/07/07 12:16:20;;;;;;;;;4.50;3.00;;;;;;;;4974761;28;45406;-72
2023/07/07 12:18:47;;;;;;;;;3.75;2.75;;;;;;;;5031697;28;45323;-72
2023/07/07 12:21:17;;;;;;;;;3.00;2.00;;;;;;;;5037616;28;45415;-72
2023/07/07 12:23:56;;;;;;;;;5.50;4.25;;;;;;;;5037955;28;45346;-72
2023/07/07 12:26:26;;;;;;;;;3.00;3.00;;;;;;;;5034356;28;45420;-71
2023/07/07 12:28:57;;;;;;;;;4.75;4.00;;;;;;;;5035248;28;45407;-72
2023/07/07 12:31:23;;;;;;;;;3.75;3.75;;;;;;;;5035750;28;45441;-72
2023/07/07 12:33:51;;;;;;;;;4.75;4.75;;;;;;;;5046807;28;45304;-72
2023/07/07 12:36:17;;;;;;;;;4.25;2.25;;;;;;;;5048454;28;45398;-72
2023/07/07 12:38:47;;;;;;;;;4.00;4.00;;;;;;;;5050655;28;28506;-72
2023/07/07 12:41:15;;;;;;;;;5.00;4.25;;;;;;;;5038462;28;45328;-72
2023/07/07 12:43:45;;;;;;;;;3.50;3.00;;;;;;;;5033268;28;45540;-72
2023/07/07 12:46:36;;;;;;;;;3.00;3.00;;;;;;;;5035149;28;45416;-72
2023/07/07 12:49:06;;;;;;;;;4.50;4.50;;;;;;;;5030255;28;45426;-71
2023/07/07 12:51:35;;;;;;;;;5.75;4.00;;;;;;;;5033847;28;45359;-72
2023/07/07 12:54:00;;;;;;;;;3.50;3.50;;;;;;;;5034842;28;45340;-72
2023/07/07 12:56:27;;;;;;;;;4.00;3.25;;;;;;;;5035341;28;45369;-68
2023/07/07 12:58:53;;;;;;;;;4.50;4.00;;;;;;;;5032560;28;45913;-69
2023/07/07 13:01:18;;;;;;;;;3.25;3.25;;;;;;;;5041347;28;45682;-71
2023/07/07 13:04:10;;;;;;;;;2.50;2.50;;;;;;;;5033692;28;45446;-68
2023/07/07 13:06:54;;;;;;;;;2.50;2.50;;;;;;;;5051678;28;45489;-71
2023/07/07 13:09:20;;;;;;;;;4.00;4.00;;;;;;;;5040709;28;45721;-70
2023/07/07 13:11:47;;;;;;;;;2.25;2.00;;;;;;;;5043360;28;47253;-70
2023/07/07 13:14:31;;;;;;;;;4.50;4.50;;;;;;;;5049987;28;45521;-70
2023/07/07 13:16:58;;;;;;;;;4.25;2.50;;;;;;;;5024170;28;45414;-70
2023/07/07 13:19:24;;;;;;;;;5.25;5.25;;;;;;;;5046029;28;45446;-69
2023/07/07 13:21:49;;;;;;;;;2.75;2.75;;;;;;;;5046618;28;46006;-70
2023/07/07 13:24:16;;;;;;;;;4.00;3.00;;;;;;;;5038224;28;45418;-70
2023/07/07 13:26:41;;;;;;;;;4.50;3.00;;;;;;;;5051387;28;45522;-71
2023/07/07 13:29:09;;;;;;;;;2.25;1.25;;;;;;;;5039936;28;45418;-71
2023/07/07 13:31:38;;;;;;;;;2.75;2.75;;;;;;;;5048703;28;46286;-69
2023/07/07 13:34:05;;;;;;;;;4.00;2.75;;;;;;;;5040742;28;45399;-70
2023/07/07 13:36:30;;;;;;;;;4.00;3.50;;;;;;;;5051231;28;45339;-70
2023/07/07 13:38:55;;;;;;;;;1.75;1.75;;;;;;;;5038583;28;45489;-68
2023/07/07 13:41:21;;;;;;;;;5.00;4.00;;;;;;;;5046606;28;47293;-70
2023/07/07 13:43:47;;;;;;;;;6.00;4.75;;;;;;;;5046265;28;45327;-68
2023/07/07 13:46:18;;;;;;;;;5.25;4.00;;;;;;;;5038496;28;45463;-69
2023/07/07 13:48:46;;;;;;;;;6.50;4.25;;;;;;;;5050599;28;45453;-70
2023/07/07 13:51:14;;;;;;;;;2.50;2.50;;;;;;;;5040517;28;46266;-70
2023/07/07 13:53:40;;;;;;;;;3.00;2.75;;;;;;;;5043622;28;45340;-70
2023/07/07 13:56:05;;;;;;;;;4.75;4.75;;;;;;;;5047193;28;45417;-70
2023/07/07 13:58:31;;;;;;;;;4.50;4.00;;;;;;;;5038023;28;45381;-71
2023/07/07 14:00:58;;;;;;;;;3.75;3.75;;;;;;;;5049733;28;45443;-71
2023/07/07 14:03:23;;;;;;;;;4.00;3.50;;;;;;;;5042412;28;45411;-73
2023/07/07 14:05:52;;;;;;;;;4.00;4.00;;;;;;;;5042042;28;45499;-72
2023/07/07 14:08:20;;;;;;;;;4.25;2.50;;;;;;;;5050341;28;45350;-70
2023/07/07 14:10:48;;;;;;;;;3.75;3.75;;;;;;;;5035852;28;48389;-71
2023/07/07 14:13:32;;;;;;;;;4.00;4.00;;;;;;;;5045958;28;45533;-70
2023/07/07 14:16:11;;;;;;;;;4.00;4.00;;;;;;;;5041257;28;45435;-71
2023/07/07 14:18:40;;;;;;;;;3.00;3.00;;;;;;;;5050485;28;45323;-71
2023/07/07 14:21:07;;;;;;;;;6.00;4.75;;;;;;;;5039579;28;45409;-70
2023/07/07 14:23:33;;;;;;;;;3.50;3.50;;;;;;;;5044050;28;45396;-71
2023/07/07 14:25:58;;;;;;;;;7.25;6.25;;;;;;;;5047011;28;45458;-70
2023/07/07 14:28:51;;;;;;;;;4.00;4.00;;;;;;;;5037482;28;45379;-71
2023/07/07 14:31:16;;;;;;;;;3.75;3.75;;;;;;;;5044934;28;46127;-70
2023/07/07 14:33:47;;;;;;;;;4.00;4.00;;;;;;;;5043090;28;45411;-70
2023/07/07 14:36:22;;;;;;;;;4.00;4.00;;;;;;;;5051290;28;45318;-68
2023/07/07 14:38:54;;;;;;;;;4.25;4.25;;;;;;;;5040407;28;45260;-70
2023/07/07 14:41:21;;;;;;;;;3.00;3.00;;;;;;;;5048949;28;45652;-70
2023/07/07 14:43:46;;;;;;;;;5.00;4.00;;;;;;;;5048426;28;45418;-70
2023/07/07 14:46:26;;;;;;;;;4.25;3.75;;;;;;;;5024443;28;45371;-70
2023/07/07 14:48:53;;;;;;;;;3.25;3.25;;;;;;;;5023695;28;45559;-70